createdAt,value
2019-02-24T00:01:01.934Z,27.30
2019-02-24T00:03:33.700Z,26.93
2019-02-24T00:06:05.474Z,30.60
2019-02-24T00:08:37.208Z,29.13
2019-02-24T00:11:09.848Z,32.03
2019-02-24T00:13:41.632Z,29.23
2019-02-24T00:16:13.460Z,29.53
2019-02-24T00:18:45.162Z,28.00
2019-02-24T00:21:16.842Z,27.57
2019-02-24T00:23:48.612Z,30.37
2019-02-24T00:26:20.284Z,25.07
2019-02-24T00:28:52.066Z,26.50
2019-02-24T00:31:23.824Z,28.00
2019-02-24T00:33:55.508Z,26.10
2019-02-24T00:36:27.160Z,34.13
2019-02-24T00:38:58.842Z,27.40
2019-02-24T00:41:30.515Z,25.23
2019-02-24T00:44:02.238Z,26.30
2019-02-24T00:46:33.915Z,29.23
2019-02-24T00:49:05.689Z,27.87
2019-02-24T00:51:37.359Z,27.27
2019-02-24T00:54:09.137Z,24.33
2019-02-24T00:56:40.833Z,27.73
2019-02-24T00:59:12.601Z,25.13
2019-02-24T01:01:44.343Z,28.33
2019-02-24T01:04:16.049Z,30.87
2019-02-24T01:06:47.717Z,25.80
2019-02-24T01:09:19.481Z,27.70
2019-02-24T01:11:51.183Z,30.97
2019-02-24T01:14:22.887Z,21.07
2019-02-24T01:16:55.305Z,30.30
2019-02-24T01:19:27.027Z,29.93
2019-02-24T01:21:58.706Z,31.50
2019-02-24T01:24:30.476Z,31.80
2019-02-24T01:27:02.175Z,25.90
2019-02-24T01:29:33.885Z,27.03
2019-02-24T01:32:05.645Z,24.93
2019-02-24T01:34:37.354Z,30.17
2019-02-24T01:37:09.014Z,32.20
2019-02-24T01:39:40.819Z,29.83
2019-02-24T01:42:12.857Z,27.97
2019-02-24T01:44:44.637Z,29.03
2019-02-24T01:47:16.320Z,22.63
2019-02-24T01:49:48.053Z,30.80
2019-02-24T01:52:19.939Z,36.37
2019-02-24T01:54:51.702Z,27.90
2019-02-24T01:57:23.420Z,33.30
2019-02-24T01:59:55.118Z,30.73
2019-02-24T02:02:26.868Z,26.10
2019-02-24T02:04:58.651Z,28.60
2019-02-24T02:07:30.404Z,31.97
2019-02-24T02:10:02.145Z,25.03
2019-02-24T02:12:33.850Z,27.90
2019-02-24T02:15:05.643Z,31.43
2019-02-24T02:17:37.338Z,35.97
2019-02-24T02:20:09.089Z,28.63
2019-02-24T02:22:40.840Z,34.53
2019-02-24T02:25:12.506Z,30.47
2019-02-24T02:27:44.216Z,32.87
2019-02-24T02:30:16.031Z,32.43
2019-02-24T02:32:47.750Z,30.20
2019-02-24T02:35:19.509Z,34.93
2019-02-24T02:37:51.284Z,31.43
2019-02-24T02:40:23.029Z,29.43
2019-02-24T02:42:54.708Z,29.50
2019-02-24T02:45:26.536Z,34.40
2019-02-24T02:47:58.196Z,31.80
2019-02-24T02:50:30.037Z,26.93
2019-02-24T02:53:01.772Z,32.47
2019-02-24T02:55:33.454Z,36.83
2019-02-24T02:58:05.199Z,36.83
2019-02-24T03:00:36.982Z,33.33
2019-02-24T03:03:08.635Z,31.97
2019-02-24T03:05:42.476Z,34.23
2019-02-24T03:08:15.328Z,35.97
2019-02-24T03:10:47.100Z,33.13
2019-02-24T03:13:18.847Z,30.00
2019-02-24T03:15:50.622Z,29.30
2019-02-24T03:18:22.314Z,29.50
2019-02-24T03:20:53.972Z,33.90
2019-02-24T03:23:25.656Z,35.90
2019-02-24T03:25:57.396Z,28.17
2019-02-24T03:28:29.073Z,32.83
2019-02-24T03:31:00.796Z,29.60
2019-02-24T03:33:32.604Z,30.57
2019-02-24T03:36:04.474Z,38.40
2019-02-24T03:38:36.166Z,29.77
2019-02-24T03:41:07.882Z,33.50
2019-02-24T03:43:39.642Z,36.03
2019-02-24T03:46:11.351Z,29.37
2019-02-24T03:48:43.183Z,31.63
2019-02-24T03:51:14.911Z,33.67
2019-02-24T03:53:46.646Z,32.43
2019-02-24T03:56:18.400Z,32.37
2019-02-24T03:58:50.119Z,33.13
2019-02-24T04:01:21.806Z,28.93
2019-02-24T04:03:53.607Z,29.77
2019-02-24T04:06:25.283Z,32.13
2019-02-24T04:08:56.988Z,30.83
2019-02-24T04:11:28.844Z,26.77
2019-02-24T04:14:00.625Z,25.87
2019-02-24T04:16:32.469Z,25.60
2019-02-24T04:19:04.202Z,29.93
2019-02-24T04:21:35.956Z,35.50
2019-02-24T04:24:07.655Z,28.70
2019-02-24T04:26:39.434Z,29.90
2019-02-24T04:29:11.207Z,29.80
2019-02-24T04:31:42.883Z,30.50
2019-02-24T04:34:14.537Z,30.87
2019-02-24T04:36:46.248Z,32.37
2019-02-24T04:39:18.025Z,38.87
2019-02-24T04:41:49.742Z,33.67
2019-02-24T04:44:21.490Z,33.77
2019-02-24T04:46:53.196Z,27.13
2019-02-24T04:49:24.865Z,28.03
2019-02-24T04:51:56.575Z,32.83
2019-02-24T04:54:28.315Z,27.90
2019-02-24T04:56:59.983Z,28.97
2019-02-24T04:59:35.039Z,31.97
2019-02-24T05:02:05.168Z,29.27
2019-02-24T05:04:36.924Z,27.23
2019-02-24T05:07:08.636Z,32.03
2019-02-24T05:09:40.398Z,25.07
2019-02-24T05:12:12.089Z,27.40
2019-02-24T05:14:43.797Z,29.03
2019-02-24T05:17:15.533Z,27.77
2019-02-24T05:19:47.216Z,26.97
2019-02-24T05:22:18.944Z,32.20
2019-02-24T05:24:50.660Z,31.47
2019-02-24T05:27:22.425Z,27.23
2019-02-24T05:29:54.281Z,27.50
2019-02-24T05:32:26.017Z,28.27
2019-02-24T05:34:57.858Z,23.90
2019-02-24T05:37:29.632Z,25.47
2019-02-24T05:40:01.327Z,27.40
2019-02-24T05:42:33.026Z,33.27
2019-02-24T05:45:05.092Z,36.93
2019-02-24T05:47:36.878Z,25.43
2019-02-24T05:50:08.643Z,25.97
2019-02-24T05:52:40.347Z,30.77
2019-02-24T05:55:12.021Z,29.20
2019-02-24T05:57:43.752Z,29.03
2019-02-24T06:00:15.513Z,25.67
2019-02-24T06:02:47.227Z,36.47
2019-02-24T06:05:18.976Z,35.13
2019-02-24T06:07:50.749Z,29.77
2019-02-24T06:10:22.444Z,28.83
2019-02-24T06:12:54.117Z,29.23
2019-02-24T06:15:25.866Z,30.43
2019-02-24T06:17:57.541Z,32.07
2019-02-24T06:20:29.241Z,29.00
2019-02-24T06:23:00.927Z,26.30
2019-02-24T06:25:32.712Z,38.37
2019-02-24T06:28:04.445Z,29.53
2019-02-24T06:30:36.173Z,32.50
2019-02-24T06:33:07.881Z,29.77
2019-02-24T06:35:39.574Z,29.27
2019-02-24T06:38:11.299Z,28.33
2019-02-24T06:40:43.090Z,27.70
2019-02-24T06:43:14.865Z,29.27
2019-02-24T06:45:46.515Z,28.03
2019-02-24T06:48:18.215Z,31.43
2019-02-24T06:51:08.925Z,30.63
2019-02-24T06:53:40.640Z,32.23
2019-02-24T06:56:12.392Z,30.23
2019-02-24T06:58:44.086Z,32.60
2019-02-24T07:01:15.756Z,40.40
2019-02-24T07:03:47.468Z,39.07
2019-02-24T07:06:19.159Z,40.57
2019-02-24T07:08:50.884Z,35.97
2019-02-24T07:11:22.532Z,38.30
2019-02-24T07:13:54.238Z,35.20
2019-02-24T07:16:25.975Z,35.50
2019-02-24T07:18:57.680Z,32.87
2019-02-24T07:21:29.396Z,36.63
2019-02-24T07:24:01.070Z,28.93
2019-02-24T07:26:32.790Z,30.83
2019-02-24T07:29:04.480Z,28.83
2019-02-24T07:31:36.278Z,24.50
2019-02-24T07:34:07.984Z,24.20
2019-02-24T07:36:47.032Z,23.77
2019-02-24T07:39:18.710Z,23.47
2019-02-24T07:41:50.421Z,25.37
2019-02-24T07:44:23.314Z,27.57
2019-02-24T07:46:55.096Z,24.60
2019-02-24T07:49:26.783Z,24.90
2019-02-24T07:51:58.501Z,24.40
2019-02-24T07:54:30.196Z,28.00
2019-02-24T07:57:01.912Z,24.93
2019-02-24T07:59:33.638Z,24.43
2019-02-24T08:02:05.426Z,23.00
2019-02-24T08:04:37.160Z,21.93
2019-02-24T08:07:08.996Z,20.33
2019-02-24T08:09:40.843Z,21.77
2019-02-24T08:12:12.668Z,22.50
2019-02-24T08:14:44.397Z,20.60
2019-02-24T08:17:16.136Z,19.13
2019-02-24T08:19:47.821Z,22.97
2019-02-24T08:22:19.582Z,19.40
2019-02-24T08:25:07.643Z,20.67
2019-02-24T08:27:39.420Z,20.17
2019-02-24T08:30:11.595Z,23.10
2019-02-24T08:32:43.315Z,18.67
2019-02-24T08:35:15.131Z,18.63
2019-02-24T08:37:46.920Z,16.57
2019-02-24T08:40:18.665Z,20.27
2019-02-24T08:42:50.446Z,22.87
2019-02-24T08:45:22.186Z,23.02
2019-02-24T08:47:53.981Z,17.02
2019-02-24T08:50:25.804Z,20.05
2019-02-24T08:52:57.618Z,18.30
2019-02-24T08:55:29.360Z,20.73
2019-02-24T08:58:01.117Z,19.60
2019-02-24T09:00:32.852Z,16.67
2019-02-24T09:03:04.576Z,18.93
2019-02-24T09:05:36.362Z,20.37
2019-02-24T09:08:08.082Z,19.98
2019-02-24T09:10:39.894Z,18.05
2019-02-24T09:13:11.614Z,16.67
2019-02-24T09:15:43.417Z,24.05
2019-02-24T09:18:15.217Z,17.50
2019-02-24T09:20:46.951Z,23.87
2019-02-24T09:23:18.825Z,20.85
2019-02-24T09:25:50.592Z,17.00
2019-02-24T09:28:22.370Z,18.50
2019-02-24T09:31:00.461Z,17.85
2019-02-24T09:33:27.605Z,18.00
2019-02-24T09:35:59.323Z,18.45
2019-02-24T09:38:31.209Z,17.57
2019-02-24T09:41:02.939Z,15.98
2019-02-24T09:43:34.793Z,16.75
2019-02-24T09:46:06.621Z,14.53
2019-02-24T09:48:38.399Z,14.83
2019-02-24T09:51:10.192Z,14.15
2019-02-24T09:53:41.995Z,15.75
2019-02-24T09:56:14.511Z,13.95
2019-02-24T09:58:46.270Z,18.52
2019-02-24T10:01:17.982Z,12.25
2019-02-24T10:03:49.814Z,12.00
2019-02-24T10:06:21.562Z,14.90
2019-02-24T10:08:53.379Z,14.93
2019-02-24T10:11:25.103Z,23.63
2019-02-24T10:13:56.909Z,15.17
2019-02-24T10:16:28.688Z,12.03
2019-02-24T10:19:00.505Z,14.80
2019-02-24T10:21:32.275Z,12.63
2019-02-24T10:24:04.004Z,12.40
2019-02-24T10:26:35.721Z,12.33
2019-02-24T10:29:07.515Z,12.73
2019-02-24T10:31:39.295Z,11.87
2019-02-24T10:34:11.029Z,8.73
2019-02-24T10:36:42.844Z,13.75
2019-02-24T10:39:14.725Z,12.33
2019-02-24T10:41:46.458Z,18.07
2019-02-24T10:44:18.132Z,11.73
2019-02-24T10:46:49.845Z,11.30
2019-02-24T10:49:21.551Z,12.88
2019-02-24T10:51:53.310Z,11.85
2019-02-24T10:54:25.114Z,11.88
2019-02-24T10:57:16.268Z,8.83
2019-02-24T10:59:48.055Z,10.93
2019-02-24T11:02:19.764Z,9.85
2019-02-24T11:04:51.481Z,15.37
2019-02-24T11:07:23.239Z,17.35
2019-02-24T11:09:54.987Z,12.10
2019-02-24T11:12:26.697Z,11.18
2019-02-24T11:14:58.461Z,13.15
2019-02-24T11:17:30.167Z,13.13
2019-02-24T11:20:01.902Z,11.40
2019-02-24T11:22:33.587Z,14.58
2019-02-24T11:25:05.434Z,12.90
2019-02-24T11:27:38.037Z,11.83
2019-02-24T11:30:10.043Z,11.93
2019-02-24T11:32:41.931Z,10.65
2019-02-24T11:35:13.634Z,13.50
2019-02-24T11:37:45.364Z,14.07
2019-02-24T11:40:17.146Z,12.90
2019-02-24T11:42:48.883Z,12.70
2019-02-24T11:45:20.615Z,14.35
2019-02-24T11:47:52.344Z,11.63
2019-02-24T11:50:24.124Z,11.03
2019-02-24T11:52:55.919Z,14.65
2019-02-24T11:55:27.681Z,11.60
2019-02-24T11:57:59.482Z,9.55
2019-02-24T12:00:31.208Z,12.68
2019-02-24T12:03:02.978Z,13.98
2019-02-24T12:05:34.710Z,11.83
2019-02-24T12:08:06.466Z,12.33
2019-02-24T12:10:38.183Z,12.15
2019-02-24T12:13:09.881Z,13.10
2019-02-24T12:15:41.605Z,11.70
2019-02-24T12:18:13.307Z,11.60
2019-02-24T12:20:45.072Z,11.78
2019-02-24T12:23:16.853Z,14.98
2019-02-24T12:25:48.647Z,12.13
2019-02-24T12:28:20.415Z,14.25
2019-02-24T12:30:52.255Z,10.80
2019-02-24T12:33:24.051Z,15.10
2019-02-24T12:35:55.778Z,13.38
2019-02-24T12:38:27.511Z,14.50
2019-02-24T12:40:59.249Z,10.82
2019-02-24T12:43:31.000Z,12.55
2019-02-24T12:46:02.690Z,10.82
2019-02-24T12:48:34.367Z,10.70
2019-02-24T12:51:06.095Z,13.05
2019-02-24T12:53:37.833Z,13.25
2019-02-24T12:56:09.531Z,11.83
2019-02-24T12:58:41.248Z,11.65
2019-02-24T13:01:13.015Z,7.30
2019-02-24T13:03:44.721Z,8.55
2019-02-24T13:06:16.469Z,7.75
2019-02-24T13:08:48.198Z,10.35
2019-02-24T13:11:19.893Z,7.75
2019-02-24T13:13:51.569Z,9.95
2019-02-24T13:16:23.244Z,4.53
2019-02-24T13:18:54.919Z,5.17
2019-02-24T13:21:26.685Z,2.10
2019-02-24T13:23:58.443Z,2.92
2019-02-24T13:26:30.231Z,3.45
2019-02-24T13:29:01.917Z,2.47
2019-02-24T13:31:33.695Z,2.80
2019-02-24T13:34:05.377Z,4.80
2019-02-24T13:36:37.095Z,3.37
2019-02-24T13:39:08.896Z,2.22
2019-02-24T13:41:40.676Z,3.20
2019-02-24T13:44:12.463Z,3.92
2019-02-24T13:46:44.277Z,4.17
2019-02-24T13:49:15.982Z,5.58
2019-02-24T13:51:47.765Z,2.90
2019-02-24T13:54:19.467Z,5.58
2019-02-24T13:56:51.257Z,10.78
2019-02-24T13:59:23.068Z,7.25
2019-02-24T14:01:54.919Z,6.70
2019-02-24T14:04:26.625Z,9.75
2019-02-24T14:06:58.307Z,7.75
2019-02-24T14:09:30.026Z,8.35
2019-02-24T14:12:01.711Z,11.00
2019-02-24T14:14:33.407Z,7.40
2019-02-24T14:17:05.084Z,8.48
2019-02-24T14:19:36.770Z,10.13
2019-02-24T14:22:09.802Z,10.20
2019-02-24T14:24:41.661Z,10.30
2019-02-24T14:27:14.624Z,10.45
2019-02-24T14:29:46.575Z,7.00
2019-02-24T14:32:19.903Z,8.98
2019-02-24T14:34:51.680Z,7.45
2019-02-24T14:37:23.386Z,7.97
2019-02-24T14:39:55.137Z,8.98
2019-02-24T14:42:26.934Z,13.88
2019-02-24T14:44:58.658Z,7.30
2019-02-24T14:47:30.439Z,6.78
2019-02-24T14:50:02.162Z,9.03
2019-02-24T14:52:33.880Z,7.50
2019-02-24T14:55:05.762Z,6.37
2019-02-24T14:57:37.559Z,9.05
2019-02-24T15:00:11.407Z,7.78
2019-02-24T15:02:43.154Z,10.32
2019-02-24T15:05:16.477Z,5.53
2019-02-24T15:07:48.364Z,7.62
2019-02-24T15:10:20.196Z,6.45
2019-02-24T15:12:51.887Z,4.58
2019-02-24T15:15:32.399Z,3.98
2019-02-24T15:17:57.213Z,4.45
2019-02-24T15:20:28.910Z,3.98
2019-02-24T15:23:00.635Z,3.77
2019-02-24T15:25:32.427Z,7.28
2019-02-24T15:28:04.131Z,3.98
2019-02-24T15:30:35.947Z,4.67
2019-02-24T15:33:07.642Z,4.15
2019-02-24T15:35:39.467Z,4.90
2019-02-24T15:38:11.196Z,4.92
2019-02-24T15:40:42.977Z,3.37
2019-02-24T15:43:14.673Z,3.55
2019-02-24T15:45:46.357Z,4.65
2019-02-24T15:48:18.095Z,5.12
2019-02-24T15:50:49.810Z,4.47
2019-02-24T15:53:21.497Z,5.17
2019-02-24T15:55:53.339Z,4.72
2019-02-24T15:58:25.013Z,6.05
2019-02-24T16:00:56.793Z,6.78
2019-02-24T16:03:28.526Z,6.87
2019-02-24T16:06:00.386Z,5.12
2019-02-24T16:08:32.251Z,4.60
2019-02-24T16:11:03.964Z,7.00
2019-02-24T16:13:35.679Z,9.73
2019-02-24T16:16:07.456Z,8.28
2019-02-24T16:18:39.159Z,6.87
2019-02-24T16:21:10.944Z,8.10
2019-02-24T16:23:42.697Z,8.18
2019-02-24T16:26:14.489Z,7.83
2019-02-24T16:28:46.196Z,8.75
2019-02-24T16:31:17.904Z,10.50
2019-02-24T16:33:49.594Z,13.40
2019-02-24T16:36:21.432Z,11.05
2019-02-24T16:38:53.119Z,11.88
2019-02-24T16:41:24.835Z,13.70
2019-02-24T16:43:56.532Z,12.37
2019-02-24T16:46:28.420Z,9.67
2019-02-24T16:49:03.459Z,17.20
2019-02-24T16:51:35.351Z,12.98
2019-02-24T16:54:07.109Z,12.35
2019-02-24T16:56:38.912Z,14.00
2019-02-24T16:59:10.597Z,14.67
2019-02-24T17:01:42.295Z,17.42
2019-02-24T17:04:14.041Z,13.32
2019-02-24T17:06:45.778Z,9.85
2019-02-24T17:09:17.483Z,11.33
2019-02-24T17:11:49.304Z,15.08
2019-02-24T17:14:21.033Z,14.70
2019-02-24T17:17:01.162Z,14.37
2019-02-24T17:19:26.333Z,19.10
2019-02-24T17:21:58.122Z,14.33
2019-02-24T17:24:29.835Z,19.70
2019-02-24T17:27:01.518Z,19.05
2019-02-24T17:29:33.270Z,16.70
2019-02-24T17:32:04.988Z,16.53
2019-02-24T17:34:36.678Z,15.97
2019-02-24T17:37:08.575Z,18.80
2019-02-24T17:39:40.232Z,12.57
2019-02-24T17:42:11.980Z,18.03
2019-02-24T17:44:43.692Z,17.65
2019-02-24T17:47:15.391Z,18.17
2019-02-24T17:49:47.113Z,16.97
2019-02-24T17:52:18.798Z,16.23
2019-02-24T17:54:50.568Z,19.37
2019-02-24T17:57:22.382Z,15.50
2019-02-24T17:59:54.188Z,21.68
2019-02-24T18:02:26.002Z,29.73
2019-02-24T18:04:57.794Z,22.33
2019-02-24T18:07:29.497Z,18.57
2019-02-24T18:10:01.216Z,17.70
2019-02-24T18:12:33.106Z,18.25
2019-02-24T18:15:05.122Z,20.88
2019-02-24T18:17:36.827Z,18.80
2019-02-24T18:20:09.672Z,20.27
2019-02-24T18:22:41.395Z,19.60
2019-02-24T18:25:13.155Z,24.27
2019-02-24T18:27:46.539Z,29.33
2019-02-24T18:30:20.315Z,32.33
2019-02-24T18:32:52.029Z,26.03
2019-02-24T18:35:23.750Z,22.70
2019-02-24T18:37:55.537Z,23.73
2019-02-24T18:40:27.380Z,25.17
2019-02-24T18:43:00.433Z,23.18
2019-02-24T18:45:32.671Z,20.27
2019-02-24T18:48:04.375Z,20.67
2019-02-24T18:50:36.548Z,19.90
2019-02-24T18:53:08.348Z,23.93
2019-02-24T18:55:40.117Z,23.47
2019-02-24T18:58:12.211Z,20.40
2019-02-24T19:00:43.983Z,21.40
2019-02-24T19:03:15.693Z,21.43
2019-02-24T19:05:47.501Z,18.23
2019-02-24T19:08:19.242Z,20.67
2019-02-24T19:10:51.115Z,21.77
2019-02-24T19:13:22.881Z,22.77
2019-02-24T19:15:54.668Z,20.37
2019-02-24T19:18:26.467Z,28.40
2019-02-24T19:20:58.201Z,18.40
2019-02-24T19:23:29.991Z,20.43
2019-02-24T19:26:01.738Z,17.53
2019-02-24T19:28:33.497Z,19.60
2019-02-24T19:31:05.268Z,19.67
2019-02-24T19:33:37.236Z,19.57
2019-02-24T19:36:08.967Z,24.53
2019-02-24T19:38:40.916Z,20.53
2019-02-24T19:41:12.604Z,23.57
2019-02-24T19:43:44.277Z,21.67
2019-02-24T19:46:15.976Z,29.30
2019-02-24T19:48:47.655Z,32.57
2019-02-24T19:51:19.402Z,42.03
2019-02-24T19:53:51.074Z,35.70
2019-02-24T19:56:22.844Z,28.67
2019-02-24T19:58:54.578Z,32.83
2019-02-24T20:01:26.283Z,33.13
2019-02-24T20:03:58.007Z,26.43
2019-02-24T20:06:29.724Z,29.70
2019-02-24T20:09:01.508Z,30.43
2019-02-24T20:11:33.282Z,27.53
2019-02-24T20:14:05.462Z,26.93
2019-02-24T20:16:37.190Z,22.43
2019-02-24T20:19:08.902Z,25.03
2019-02-24T20:21:40.615Z,21.87
2019-02-24T20:24:12.386Z,25.67
2019-02-24T20:26:44.204Z,26.97
2019-02-24T20:29:15.979Z,29.87
2019-02-24T20:31:47.652Z,25.00
2019-02-24T20:34:25.322Z,22.27
2019-02-24T20:36:52.803Z,22.10
2019-02-24T20:39:24.485Z,27.13
2019-02-24T20:41:56.230Z,32.83
2019-02-24T20:44:27.914Z,28.00
2019-02-24T20:46:59.622Z,26.67
2019-02-24T20:49:31.288Z,28.83
2019-02-24T20:52:02.962Z,26.30
2019-02-24T20:54:34.664Z,28.17
2019-02-24T20:57:06.338Z,26.40
2019-02-24T20:59:38.017Z,27.03
2019-02-24T21:02:09.698Z,25.83
2019-02-24T21:04:41.481Z,20.50
2019-02-24T21:07:13.207Z,23.00
2019-02-24T21:09:45.008Z,25.33
2019-02-24T21:12:16.793Z,24.60
2019-02-24T21:14:48.583Z,23.50
2019-02-24T21:17:20.396Z,22.40
2019-02-24T21:19:52.105Z,20.73
2019-02-24T21:22:23.914Z,24.80
2019-02-24T21:24:55.678Z,19.07
2019-02-24T21:27:27.448Z,27.27
2019-02-24T21:29:59.195Z,18.03
2019-02-24T21:32:30.873Z,21.87
2019-02-24T21:35:02.642Z,19.50
2019-02-24T21:37:34.427Z,29.80
2019-02-24T21:40:06.657Z,23.90
2019-02-24T21:42:38.417Z,23.23
2019-02-24T21:45:12.762Z,22.30
2019-02-24T21:47:44.530Z,22.83
2019-02-24T21:50:16.497Z,26.00
2019-02-24T21:52:48.265Z,27.23
2019-02-24T21:55:19.937Z,22.23
2019-02-24T21:57:51.725Z,33.97
2019-02-24T22:00:23.610Z,29.17
2019-02-24T22:02:55.309Z,24.30
2019-02-24T22:05:27.095Z,25.63
2019-02-24T22:07:58.874Z,25.70
2019-02-24T22:10:30.618Z,23.77
2019-02-24T22:13:02.409Z,18.87
2019-02-24T22:15:34.188Z,17.10
2019-02-24T22:18:06.036Z,18.93
2019-02-24T22:20:37.828Z,17.07
2019-02-24T22:23:09.519Z,21.47
2019-02-24T22:25:41.239Z,19.67
2019-02-24T22:28:12.934Z,21.93
2019-02-24T22:30:44.635Z,18.07
2019-02-24T22:33:16.400Z,19.77
2019-02-24T22:35:48.055Z,16.50
2019-02-24T22:38:19.725Z,16.37
2019-02-24T22:40:54.382Z,12.73
2019-02-24T22:43:24.968Z,13.10
2019-02-24T22:45:56.692Z,19.63
2019-02-24T22:48:28.377Z,16.90
2019-02-24T22:51:00.054Z,21.77
2019-02-24T22:53:31.774Z,17.03
2019-02-24T22:56:03.456Z,14.33
2019-02-24T22:58:35.123Z,18.30
2019-02-24T23:01:18.637Z,14.33
2019-02-24T23:03:50.418Z,11.37
2019-02-24T23:06:22.186Z,16.80
2019-02-24T23:08:53.847Z,13.20
2019-02-24T23:11:25.530Z,11.80
2019-02-24T23:13:57.226Z,16.87
2019-02-24T23:16:28.875Z,17.63
2019-02-24T23:19:00.571Z,17.30
2019-02-24T23:21:32.246Z,15.40
2019-02-24T23:24:03.935Z,12.73
2019-02-24T23:26:35.706Z,11.80
2019-02-24T23:29:07.382Z,13.73
2019-02-24T23:31:39.187Z,12.93
2019-02-24T23:34:10.912Z,14.17
2019-02-24T23:36:42.680Z,15.03
2019-02-24T23:39:17.292Z,15.70
2019-02-24T23:41:48.984Z,16.80
2019-02-24T23:44:20.663Z,16.37
2019-02-24T23:46:52.489Z,15.77
2019-02-24T23:49:24.167Z,15.77
2019-02-24T23:51:55.831Z,18.03
2019-02-24T23:54:27.507Z,12.23
2019-02-24T23:56:59.165Z,12.17
2019-02-24T23:59:30.857Z,12.83
